Golconda, Nevada
Current Conditions -  °F | °C
As of 3:56 AM on Thursday 23 Oct 2014 (Local Time) from KWMC Reporting Station
Scattered Clouds Scattered Clouds  
Wind Chill: 48°   Ceiling: Unl
Heat Index: 48°   Visibility: 10mi
Dew Point: 27°   Wind: 3mph
Humidity: 44%   Direction: 110°ESE
Pressure: 30.05"   Gusts: NA
Location:  40.95°N, 117.49°W
Report Text: KWMC 231056Z AUTO 11003KT 10SM SCT120 09/M03 A3005 RMK AO2 SLP150 T00891028
Loading
Personal Weather Stations






























Interactive Weather Map
Tropical Storm Tracking
New forecast layout! Learn more

10-Day Weather Forecast

Advertisements
Track Severe Weather on mobile